createdAt,value
2022-09-24T00:02:05.577Z,101092.56
2022-09-24T00:04:33.513Z,101094.16
2022-09-24T00:07:01.417Z,101095.72
2022-09-24T00:09:29.301Z,101091.72
2022-09-24T00:11:57.393Z,101093.72
2022-09-24T00:14:26.758Z,101092.84
2022-09-24T00:16:54.678Z,101085.84
2022-09-24T00:19:22.598Z,101089.00
2022-09-24T00:21:50.726Z,101083.28
2022-09-24T00:24:33.072Z,101078.41
2022-09-24T00:27:02.994Z,101067.94
2022-09-24T00:29:35.788Z,101071.69
2022-09-24T00:32:05.276Z,101073.66
2022-09-24T00:34:33.514Z,101076.25
2022-09-24T00:37:01.419Z,101063.81
2022-09-24T00:39:29.327Z,101065.66
2022-09-24T00:41:57.287Z,101067.25
2022-09-24T00:44:51.862Z,101062.78
2022-09-24T00:47:30.862Z,101059.47
2022-09-24T00:50:06.246Z,101055.34
2022-09-24T00:52:35.146Z,101052.34
2022-09-24T00:55:03.138Z,101049.19
2022-09-24T00:57:31.206Z,101053.66
2022-09-24T01:00:00.870Z,101045.50
2022-09-24T01:02:28.911Z,101051.63
2022-09-24T01:04:57.127Z,101045.34
2022-09-24T01:07:25.537Z,101047.78
2022-09-24T01:09:53.830Z,101045.19
2022-09-24T01:12:28.457Z,101051.78
2022-09-24T01:15:08.082Z,101052.78
2022-09-24T01:17:39.187Z,101048.66
2022-09-24T01:20:45.444Z,101050.38
2022-09-24T01:23:48.852Z,101050.78
2022-09-24T01:26:30.221Z,101047.78
2022-09-24T01:29:06.377Z,101050.94
2022-09-24T01:31:41.125Z,101045.50
2022-09-24T01:34:09.865Z,101042.63
2022-09-24T01:36:39.837Z,101047.06
2022-09-24T01:39:08.911Z,101037.34
2022-09-24T01:41:38.526Z,101042.63
2022-09-24T01:44:07.953Z,101040.78
2022-09-24T01:46:39.219Z,101035.34
2022-09-24T01:49:07.379Z,101036.59
2022-09-24T01:51:39.431Z,101031.59
2022-09-24T01:54:11.865Z,101027.72
2022-09-24T01:56:42.654Z,101030.19
2022-09-24T01:59:14.465Z,101024.31
2022-09-24T02:01:48.716Z,101023.44
2022-09-24T02:04:19.023Z,101009.41
2022-09-24T02:06:51.476Z,101013.41
2022-09-24T02:09:33.209Z,101000.41
2022-09-24T02:12:10.349Z,101004.22
2022-09-24T02:14:42.818Z,100997.22
2022-09-24T02:17:12.778Z,100999.94
2022-09-24T02:19:42.715Z,100992.78
2022-09-24T02:22:12.316Z,101005.94
2022-09-24T02:24:45.762Z,100998.66
2022-09-24T02:27:13.940Z,101005.56
2022-09-24T02:29:41.881Z,101007.84
2022-09-24T02:32:14.670Z,101005.41
2022-09-24T02:34:44.414Z,101003.69
2022-09-24T02:37:14.110Z,101006.41
2022-09-24T02:39:42.315Z,101002.09
2022-09-24T02:42:12.057Z,101008.69
2022-09-24T02:44:39.943Z,100994.69
2022-09-24T02:47:08.579Z,100998.50
2022-09-24T02:49:37.877Z,101005.34
2022-09-24T02:52:05.808Z,101006.25
2022-09-24T02:54:34.356Z,100999.25
2022-09-24T02:57:02.329Z,101001.81
2022-09-24T02:59:30.191Z,100999.84
2022-09-24T03:01:58.433Z,101003.97
2022-09-24T03:04:26.574Z,101004.25
2022-09-24T03:06:55.835Z,101000.28
2022-09-24T03:09:23.737Z,100996.97
2022-09-24T03:11:51.946Z,100986.50
2022-09-24T03:14:19.887Z,100984.22
2022-09-24T03:16:47.777Z,100995.53
2022-09-24T03:19:15.703Z,100996.22
2022-09-24T03:21:43.594Z,100994.25
2022-09-24T03:24:12.915Z,100993.13
2022-09-24T03:26:41.483Z,100987.22
2022-09-24T03:29:10.289Z,100988.22
2022-09-24T03:31:37.226Z,100993.38
2022-09-24T03:34:05.465Z,100983.06
2022-09-24T03:36:33.513Z,100981.66
2022-09-24T03:39:01.409Z,100967.84
2022-09-24T03:41:30.670Z,100967.84
2022-09-24T03:43:58.590Z,100954.81
2022-09-24T03:46:28.608Z,100961.66
2022-09-24T03:48:59.332Z,100954.09
2022-09-24T03:51:27.441Z,100958.50
2022-09-24T03:53:55.353Z,100958.13
2022-09-24T03:56:23.282Z,100955.94
2022-09-24T03:58:52.720Z,100951.78
2022-09-24T04:01:21.765Z,100946.06
2022-09-24T04:03:50.441Z,100943.50
2022-09-24T04:06:24.886Z,100947.38
2022-09-24T04:08:53.962Z,100943.94
2022-09-24T04:11:22.000Z,100944.13
2022-09-24T04:13:49.881Z,100943.69
2022-09-24T04:16:19.362Z,100950.53
2022-09-24T04:18:48.049Z,100950.84
2022-09-24T04:21:16.092Z,100947.69
2022-09-24T04:23:44.150Z,100940.38
2022-09-24T04:26:12.549Z,100946.72
2022-09-24T04:28:40.610Z,100949.81
2022-09-24T04:31:08.578Z,100948.53
2022-09-24T04:33:37.975Z,100941.53
2022-09-24T04:36:05.866Z,100951.94
2022-09-24T04:38:33.817Z,100948.69
2022-09-24T04:41:06.629Z,100944.72
2022-09-24T04:43:34.643Z,100936.84
2022-09-24T04:46:03.506Z,100943.03
2022-09-24T04:48:31.633Z,100937.88
2022-09-24T04:51:02.196Z,100942.06
2022-09-24T04:53:30.106Z,100933.97
2022-09-24T04:55:58.099Z,100934.53
2022-09-24T04:58:26.138Z,100936.69
2022-09-24T05:00:54.375Z,100929.41
2022-09-24T05:03:22.387Z,100928.53
2022-09-24T05:05:51.189Z,100922.94
2022-09-24T05:08:20.418Z,100934.50
2022-09-24T05:10:48.361Z,100934.66
2022-09-24T05:13:16.318Z,100941.22
2022-09-24T05:15:44.419Z,100943.63
2022-09-24T05:18:12.355Z,100940.97
2022-09-24T05:20:40.245Z,100940.91
2022-09-24T05:23:08.151Z,100941.84
2022-09-24T05:25:58.257Z,100932.72
2022-09-24T05:28:25.307Z,100943.28
2022-09-24T05:30:58.062Z,100938.41
2022-09-24T05:33:26.219Z,100939.94
2022-09-24T05:35:55.300Z,100929.22
2022-09-24T05:38:23.201Z,100935.63
2022-09-24T05:40:52.538Z,100934.78
2022-09-24T05:43:20.808Z,100947.63
2022-09-24T05:45:50.591Z,100936.50
2022-09-24T05:48:18.604Z,100941.66
2022-09-24T05:50:46.495Z,100943.25
2022-09-24T05:53:14.667Z,100941.84
2022-09-24T05:55:44.168Z,100942.41
2022-09-24T05:58:15.611Z,100947.13
2022-09-24T06:00:43.782Z,100941.41
2022-09-24T06:03:13.773Z,100942.16
2022-09-24T06:05:46.184Z,100934.56
2022-09-24T06:08:15.424Z,100944.66
2022-09-24T06:10:44.133Z,100946.84
2022-09-24T06:13:14.213Z,100952.06
2022-09-24T06:15:42.606Z,100943.47
2022-09-24T06:18:11.094Z,100956.88
2022-09-24T06:20:40.235Z,100948.88
2022-09-24T06:23:08.144Z,100961.06
2022-09-24T06:25:36.071Z,100951.19
2022-09-24T06:28:05.554Z,100946.47
2022-09-24T06:30:38.373Z,100959.34
2022-09-24T06:33:07.826Z,100948.91
2022-09-24T06:35:36.518Z,100950.03
2022-09-24T06:38:04.730Z,100960.91
2022-09-24T06:40:36.656Z,100952.91
2022-09-24T06:43:05.449Z,100957.00
2022-09-24T06:45:33.427Z,100957.50
2022-09-24T06:48:04.271Z,100955.31
2022-09-24T06:50:34.390Z,100957.75
2022-09-24T06:53:05.350Z,100962.31
2022-09-24T06:55:33.831Z,100961.06
2022-09-24T06:58:06.318Z,100965.78
2022-09-24T07:00:34.394Z,100965.03
2022-09-24T07:03:03.748Z,100963.19
2022-09-24T07:05:31.728Z,100963.19
2022-09-24T07:07:59.860Z,100969.75
2022-09-24T07:10:28.119Z,100964.44
2022-09-24T07:12:56.307Z,100974.34
2022-09-24T07:15:24.286Z,100971.47
2022-09-24T07:17:56.617Z,100960.19
2022-09-24T07:20:28.242Z,100973.50
2022-09-24T07:22:56.256Z,100975.78
2022-09-24T07:25:24.337Z,100970.91
2022-09-24T07:27:52.289Z,100976.06
2022-09-24T07:30:20.245Z,100977.78
2022-09-24T07:32:49.407Z,100976.22
2022-09-24T07:35:18.956Z,100978.38
2022-09-24T07:37:48.325Z,100979.09
2022-09-24T07:40:16.289Z,100984.97
2022-09-24T07:42:48.534Z,100980.78
2022-09-24T07:45:17.307Z,100983.38
2022-09-24T07:47:45.259Z,100991.81
2022-09-24T07:50:13.755Z,100987.28
2022-09-24T07:52:41.682Z,100993.00
2022-09-24T07:55:11.105Z,100993.72
2022-09-24T07:57:39.503Z,100998.56
2022-09-24T08:00:09.036Z,100996.53
2022-09-24T08:02:36.951Z,100999.53
2022-09-24T08:05:05.918Z,101001.53
2022-09-24T08:07:33.855Z,101007.59
2022-09-24T08:10:01.874Z,100997.84
2022-09-24T08:12:31.221Z,101003.84
2022-09-24T08:14:59.105Z,101002.72
2022-09-24T08:17:27.851Z,100995.41
2022-09-24T08:19:56.979Z,101004.56
2022-09-24T08:22:25.133Z,101002.00
2022-09-24T08:24:53.124Z,101002.88
2022-09-24T08:27:21.357Z,101007.72
2022-09-24T08:29:50.671Z,101003.72
2022-09-24T08:32:19.026Z,101007.88
2022-09-24T08:34:46.922Z,101001.28
2022-09-24T08:37:14.964Z,101001.13
2022-09-24T08:39:42.859Z,100998.72
2022-09-24T08:42:16.848Z,101002.56
2022-09-24T08:45:04.221Z,101001.28
2022-09-24T08:47:39.488Z,101005.75
2022-09-24T08:50:12.643Z,101002.56
2022-09-24T08:52:58.217Z,101008.44
2022-09-24T08:55:32.939Z,101006.97
2022-09-24T08:58:09.714Z,101012.38
2022-09-24T09:00:43.425Z,101013.00
2022-09-24T09:03:18.074Z,101014.59
2022-09-24T09:05:53.903Z,101018.03
2022-09-24T09:08:54.642Z,101011.00
2022-09-24T09:11:23.260Z,101019.19
2022-09-24T09:13:54.299Z,101021.19
2022-09-24T09:16:25.284Z,101023.88
2022-09-24T09:18:57.230Z,101021.44
2022-09-24T09:21:30.046Z,101017.88
2022-09-24T09:23:59.193Z,101015.25
2022-09-24T09:26:27.318Z,101018.66
2022-09-24T09:28:59.398Z,101016.38
2022-09-24T09:31:35.530Z,101022.38
2022-09-24T09:34:17.706Z,101016.34
2022-09-24T09:36:55.098Z,101024.81
2022-09-24T09:39:32.221Z,101026.00
2022-09-24T09:42:08.030Z,101023.13
2022-09-24T09:44:41.469Z,101025.28
2022-09-24T09:47:18.633Z,101026.72
2022-09-24T09:49:48.890Z,101034.47
2022-09-24T09:52:21.283Z,101028.03
2022-09-24T09:54:49.730Z,101025.91
2022-09-24T09:57:20.614Z,101019.06
2022-09-24T09:59:50.000Z,101031.06
2022-09-24T10:02:25.392Z,101034.22
2022-09-24T10:04:56.842Z,101030.34
2022-09-24T10:07:25.279Z,101029.47
2022-09-24T10:10:02.121Z,101034.34
2022-09-24T10:12:30.887Z,101026.03
2022-09-24T10:15:01.124Z,101033.66
2022-09-24T10:17:37.803Z,101030.78
2022-09-24T10:20:11.359Z,101031.94
2022-09-24T10:22:50.155Z,101033.50
2022-09-24T10:25:19.637Z,101043.66
2022-09-24T10:27:48.007Z,101032.50
2022-09-24T10:30:35.348Z,101034.22
2022-09-24T10:33:05.034Z,101033.19
2022-09-24T10:35:38.560Z,101029.75
2022-09-24T10:38:17.793Z,101033.34
2022-09-24T10:40:45.849Z,101034.22
2022-09-24T10:43:18.400Z,101029.50
2022-09-24T10:46:17.417Z,101032.50
2022-09-24T10:48:46.643Z,101033.91
2022-09-24T10:51:28.804Z,101023.19
2022-09-24T10:54:07.463Z,101031.63
2022-09-24T10:56:42.290Z,101027.19
2022-09-24T10:59:39.470Z,101033.78
2022-09-24T11:02:23.127Z,101033.88
2022-09-24T11:04:52.807Z,101026.38
2022-09-24T11:07:40.118Z,101029.44
2022-09-24T11:10:17.579Z,101022.47
2022-09-24T11:12:54.039Z,101021.94
2022-09-24T11:15:32.903Z,101015.13
2022-09-24T11:18:16.854Z,101012.75
2022-09-24T11:20:50.389Z,101015.88
2022-09-24T11:23:41.598Z,101025.31
2022-09-24T11:26:19.747Z,101020.50
2022-09-24T11:29:07.111Z,101014.31
2022-09-24T11:31:40.604Z,101018.81
2022-09-24T11:34:37.820Z,101016.78
2022-09-24T11:37:15.314Z,101012.13
2022-09-24T11:39:55.998Z,101010.09
2022-09-24T11:42:26.230Z,101015.38
2022-09-24T11:45:06.930Z,101012.91
2022-09-24T11:47:48.850Z,101016.50
2022-09-24T11:50:24.653Z,101008.50
2022-09-24T11:52:55.648Z,101013.38
2022-09-24T11:55:31.797Z,101019.00
2022-09-24T11:58:06.423Z,101024.97
2022-09-24T12:00:37.953Z,101017.16
2022-09-24T12:03:10.891Z,101014.06
2022-09-24T12:05:41.684Z,101014.09
2022-09-24T12:08:12.826Z,101014.59
2022-09-24T12:10:46.126Z,101018.53
2022-09-24T12:13:18.642Z,101012.06
2022-09-24T12:15:53.758Z,101020.50
2022-09-24T12:18:25.102Z,101015.28
2022-09-24T12:20:56.323Z,101021.09
2022-09-24T12:23:28.240Z,101011.53
2022-09-24T12:25:59.584Z,101018.81
2022-09-24T12:28:50.486Z,101013.31
2022-09-24T12:31:39.305Z,101011.00
2022-09-24T12:34:11.620Z,101011.47
2022-09-24T12:36:57.108Z,101005.59
2022-09-24T12:39:28.718Z,101017.28
2022-09-24T12:42:01.028Z,101009.97
2022-09-24T12:44:40.879Z,101012.00
2022-09-24T12:47:17.023Z,101013.16
2022-09-24T12:49:49.938Z,101000.94
2022-09-24T12:52:20.173Z,100999.16
2022-09-24T12:54:55.950Z,101004.00
2022-09-24T12:57:27.410Z,101006.00
2022-09-24T12:59:56.834Z,101006.56
2022-09-24T13:02:26.453Z,101003.59
2022-09-24T13:05:20.022Z,101006.97
2022-09-24T13:07:58.495Z,101009.41
2022-09-24T13:10:28.879Z,101003.84
2022-09-24T13:13:00.116Z,101003.53
2022-09-24T13:15:38.798Z,100995.91
2022-09-24T13:18:19.816Z,101004.84
2022-09-24T13:20:59.984Z,100999.06
2022-09-24T13:23:35.318Z,100993.03
2022-09-24T13:26:05.023Z,101002.13
2022-09-24T13:28:43.706Z,100999.47
2022-09-24T13:31:20.555Z,100999.09
2022-09-24T13:33:50.912Z,100993.03
2022-09-24T13:36:21.133Z,101000.63
2022-09-24T13:38:54.618Z,100996.66
2022-09-24T13:41:28.847Z,100997.16
2022-09-24T13:44:01.698Z,101001.00
2022-09-24T13:46:31.446Z,100996.91
2022-09-24T13:49:03.682Z,100988.31
2022-09-24T13:51:34.323Z,100997.06
2022-09-24T13:54:07.080Z,101000.03
2022-09-24T13:56:35.207Z,100992.53
2022-09-24T13:59:11.787Z,100995.97
2022-09-24T14:01:41.834Z,101003.16
2022-09-24T14:04:17.436Z,101001.81
2022-09-24T14:06:48.218Z,100998.88
2022-09-24T14:09:17.767Z,100999.91
2022-09-24T14:11:53.207Z,101002.66
2022-09-24T14:14:24.661Z,100991.88
2022-09-24T14:16:54.979Z,100995.47
2022-09-24T14:19:23.958Z,100993.44
2022-09-24T14:21:54.440Z,100994.28
2022-09-24T14:24:25.354Z,100992.03
2022-09-24T14:26:55.742Z,100989.41
2022-09-24T14:29:27.587Z,100992.03
2022-09-24T14:31:57.278Z,100979.09
2022-09-24T14:34:28.033Z,100987.66
2022-09-24T14:36:57.513Z,100985.47
2022-09-24T14:39:27.688Z,100987.28
2022-09-24T14:41:56.194Z,100987.75
2022-09-24T14:44:27.552Z,100985.19
2022-09-24T14:46:58.215Z,100983.94
2022-09-24T14:49:28.931Z,100982.47
2022-09-24T14:51:59.044Z,100984.94
2022-09-24T14:54:33.207Z,100995.69
2022-09-24T14:57:22.292Z,100981.38
2022-09-24T14:59:51.695Z,100977.53
2022-09-24T15:02:21.755Z,100976.53
2022-09-24T15:04:51.757Z,100979.97
2022-09-24T15:07:22.563Z,100976.06
2022-09-24T15:09:52.467Z,100977.75
2022-09-24T15:12:22.772Z,100973.88
2022-09-24T15:14:59.391Z,100974.66
2022-09-24T15:17:31.539Z,100968.81
2022-09-24T15:19:59.519Z,100973.88
2022-09-24T15:22:28.098Z,100973.78
2022-09-24T15:25:01.196Z,100971.34
2022-09-24T15:27:32.184Z,100967.66
2022-09-24T15:30:04.767Z,100973.94
2022-09-24T15:32:35.095Z,100974.19
2022-09-24T15:35:08.287Z,100975.72
2022-09-24T15:37:39.245Z,100976.84
2022-09-24T15:40:10.252Z,100973.66
2022-09-24T15:42:38.324Z,100979.63
2022-09-24T15:45:15.257Z,100973.22
2022-09-24T15:47:43.151Z,100973.16
2022-09-24T15:50:12.127Z,100972.38
2022-09-24T15:52:45.334Z,100971.59
2022-09-24T15:55:18.589Z,100975.00
2022-09-24T15:57:47.046Z,100981.03
2022-09-24T16:00:18.993Z,100977.38
2022-09-24T16:02:50.040Z,100979.09
2022-09-24T16:05:18.620Z,100977.75
2022-09-24T16:07:46.776Z,100978.16
2022-09-24T16:10:16.108Z,100979.38
2022-09-24T16:12:44.240Z,100982.66
2022-09-24T16:15:13.992Z,100985.94
2022-09-24T16:17:43.476Z,100990.47
2022-09-24T16:20:11.559Z,101000.31
2022-09-24T16:22:39.501Z,100985.50
2022-09-24T16:25:08.367Z,101001.00
2022-09-24T16:27:36.348Z,101000.06
2022-09-24T16:30:05.501Z,100989.63
2022-09-24T16:32:33.388Z,100998.19
2022-09-24T16:35:02.733Z,100993.44
2022-09-24T16:37:30.656Z,100998.66
2022-09-24T16:39:58.610Z,100991.97
2022-09-24T16:42:26.694Z,100992.34
2022-09-24T16:44:54.626Z,100995.97
2022-09-24T16:47:22.561Z,100999.81
2022-09-24T16:49:50.479Z,100990.31
2022-09-24T16:52:19.970Z,100994.06
2022-09-24T16:54:47.854Z,100993.91
2022-09-24T16:57:15.766Z,101002.56
2022-09-24T16:59:43.678Z,100997.09
2022-09-24T17:02:12.216Z,100995.53
2022-09-24T17:04:40.501Z,100994.50
2022-09-24T17:07:10.285Z,100991.66
2022-09-24T17:09:56.927Z,100993.66
2022-09-24T17:12:24.858Z,100987.06
2022-09-24T17:14:53.103Z,100998.66
2022-09-24T17:17:21.019Z,100997.72
2022-09-24T17:19:48.926Z,100987.81
2022-09-24T17:22:16.837Z,100997.41
2022-09-24T17:24:46.126Z,100999.28
2022-09-24T17:27:14.027Z,100998.28
2022-09-24T17:29:43.019Z,100998.09
2022-09-24T17:32:11.133Z,101004.03
2022-09-24T17:34:43.432Z,100994.91
2022-09-24T17:37:13.510Z,100994.34
2022-09-24T17:39:42.025Z,101000.41
2022-09-24T17:42:11.510Z,101004.84
2022-09-24T17:44:39.393Z,100999.88
2022-09-24T17:47:07.992Z,101001.88
2022-09-24T17:49:36.013Z,101010.06
2022-09-24T17:52:04.545Z,101002.59
2022-09-24T17:54:32.530Z,101002.75
2022-09-24T17:57:01.229Z,101010.06
2022-09-24T17:59:30.807Z,101004.91
2022-09-24T18:01:58.782Z,101008.63
2022-09-24T18:04:28.441Z,101003.19
2022-09-24T18:06:56.315Z,101008.66
2022-09-24T18:09:24.217Z,101010.53
2022-09-24T18:11:53.290Z,101005.53
2022-09-24T18:14:23.186Z,101008.44
2022-09-24T18:16:52.683Z,101009.44
2022-09-24T18:19:20.712Z,101012.44
2022-09-24T18:21:49.792Z,101020.06
2022-09-24T18:24:17.845Z,101021.78
2022-09-24T18:26:51.341Z,101020.06
2022-09-24T18:29:20.286Z,101027.41
2022-09-24T18:31:48.270Z,101030.25
2022-09-24T18:34:17.700Z,101034.72
2022-09-24T18:36:46.544Z,101032.97
2022-09-24T18:39:21.897Z,101031.56
2022-09-24T18:41:51.987Z,101028.69
2022-09-24T18:44:20.641Z,101030.41
2022-09-24T18:46:49.894Z,101032.88
2022-09-24T18:49:20.359Z,101031.16
2022-09-24T18:51:49.305Z,101032.88
2022-09-24T18:54:18.327Z,101029.16
2022-09-24T18:56:46.997Z,101028.44
2022-09-24T18:59:17.190Z,101027.41
2022-09-24T19:01:46.973Z,101032.47
2022-09-24T19:04:15.414Z,101032.63
2022-09-24T19:06:46.210Z,101024.75
2022-09-24T19:09:17.223Z,101039.34
2022-09-24T19:11:45.762Z,101036.22
2022-09-24T19:14:15.041Z,101029.19
2022-09-24T19:16:42.949Z,101033.91
2022-09-24T19:19:11.269Z,101030.66
2022-09-24T19:21:39.422Z,101033.09
2022-09-24T19:24:09.835Z,101029.66
2022-09-24T19:26:38.252Z,101035.97
2022-09-24T19:29:06.614Z,101038.41
2022-09-24T19:31:37.044Z,101052.16
2022-09-24T19:34:06.981Z,101051.44
2022-09-24T19:36:43.811Z,101042.41
2022-09-24T19:39:15.638Z,101042.72
2022-09-24T19:41:43.870Z,101041.13
2022-09-24T19:44:12.096Z,101036.84
2022-09-24T19:46:40.974Z,101036.84
2022-09-24T19:49:09.118Z,101039.84
2022-09-24T19:51:37.451Z,101038.13
2022-09-24T19:54:07.514Z,101030.41
2022-09-24T19:56:38.159Z,101042.00
2022-09-24T19:59:08.023Z,101039.00
2022-09-24T20:01:36.176Z,101031.69
2022-09-24T20:04:06.232Z,101036.41
2022-09-24T20:06:38.585Z,101034.69
2022-09-24T20:09:06.564Z,101034.00
2022-09-24T20:11:34.668Z,101040.19
2022-09-24T20:14:06.013Z,101031.69
2022-09-24T20:16:34.171Z,101038.44
2022-09-24T20:19:03.148Z,101034.00
2022-09-24T20:21:34.992Z,101031.28
2022-09-24T20:24:04.169Z,101033.13
2022-09-24T20:26:50.286Z,101035.31
2022-09-24T20:29:21.603Z,101034.63
2022-09-24T20:31:52.706Z,101034.63
2022-09-24T20:34:22.224Z,101033.59
2022-09-24T20:36:50.819Z,101038.56
2022-09-24T20:39:19.189Z,101047.34
2022-09-24T20:41:47.323Z,101038.78
2022-09-24T20:44:15.222Z,101048.09
2022-09-24T20:46:44.527Z,101044.06
2022-09-24T20:49:22.449Z,101041.34
2022-09-24T20:51:56.268Z,101036.19
2022-09-24T20:54:25.156Z,101038.91
2022-09-24T20:56:53.050Z,101038.34
2022-09-24T20:59:21.208Z,101038.34
2022-09-24T21:01:50.866Z,101034.91
2022-09-24T21:04:20.230Z,101032.50
2022-09-24T21:06:48.391Z,101039.78
2022-09-24T21:09:16.986Z,101040.06
2022-09-24T21:11:45.011Z,101041.06
2022-09-24T21:14:14.886Z,101041.34
2022-09-24T21:16:42.809Z,101034.06
2022-09-24T21:19:12.902Z,101036.50
2022-09-24T21:21:40.827Z,101028.63
2022-09-24T21:24:11.720Z,101032.50
2022-09-24T21:26:40.724Z,101034.91
2022-09-24T21:29:11.232Z,101034.50
2022-09-24T21:31:42.030Z,101035.81
2022-09-24T21:34:13.099Z,101032.78
2022-09-24T21:36:44.546Z,101036.78
2022-09-24T21:39:15.344Z,101040.53
2022-09-24T21:41:43.662Z,101031.78
2022-09-24T21:44:14.165Z,101041.09
2022-09-24T21:46:43.904Z,101035.38
2022-09-24T21:49:13.535Z,101038.53
2022-09-24T21:51:42.032Z,101043.22
2022-09-24T21:54:14.109Z,101031.06
2022-09-24T21:56:42.234Z,101044.97
2022-09-24T21:59:24.193Z,101044.97
2022-09-24T22:01:52.456Z,101048.66
2022-09-24T22:04:22.029Z,101043.81
2022-09-24T22:06:51.114Z,101048.25
2022-09-24T22:09:19.534Z,101036.50
2022-09-24T22:11:47.761Z,101046.09
2022-09-24T22:14:15.763Z,101040.50
2022-09-24T22:16:43.855Z,101037.38
2022-09-24T22:19:11.815Z,101039.22
2022-09-24T22:21:41.635Z,101038.66
2022-09-24T22:24:09.684Z,101035.94
2022-09-24T22:26:37.844Z,101042.69
2022-09-24T22:29:06.022Z,101036.09
2022-09-24T22:31:34.554Z,101041.66
2022-09-24T22:34:19.963Z,101040.25
2022-09-24T22:36:49.246Z,101038.38
2022-09-24T22:39:17.249Z,101036.50
2022-09-24T22:41:45.133Z,101040.53
2022-09-24T22:44:13.376Z,101034.50
2022-09-24T22:46:41.966Z,101040.06
2022-09-24T22:49:11.052Z,101034.50
2022-09-24T22:51:39.611Z,101034.38
2022-09-24T22:54:09.826Z,101040.81
2022-09-24T22:56:37.834Z,101038.53
2022-09-24T22:59:06.317Z,101034.78
2022-09-24T23:01:36.115Z,101038.94
2022-09-24T23:04:04.353Z,101024.38
2022-09-24T23:06:33.933Z,101024.78
2022-09-24T23:09:02.462Z,101025.31
2022-09-24T23:11:33.421Z,101029.59
2022-09-24T23:14:03.290Z,101030.38
2022-09-24T23:16:32.914Z,101025.19
2022-09-24T23:19:02.977Z,101025.94
2022-09-24T23:21:32.569Z,101024.50
2022-09-24T23:24:02.085Z,101030.91
2022-09-24T23:26:31.680Z,101035.53
2022-09-24T23:29:00.885Z,101027.78
2022-09-24T23:31:30.376Z,101031.66
2022-09-24T23:33:59.519Z,101029.50
2022-09-24T23:36:28.170Z,101029.34
2022-09-24T23:38:56.133Z,101027.06
2022-09-24T23:41:24.089Z,101022.06
2022-09-24T23:43:53.466Z,101015.47
2022-09-24T23:46:21.532Z,101029.09
2022-09-24T23:48:49.681Z,101023.47
2022-09-24T23:51:17.582Z,101021.75
2022-09-24T23:53:45.469Z,101023.31
2022-09-24T23:56:13.815Z,101019.03
2022-09-24T23:58:42.294Z,101020.91
